Terminal Aerodrome Forecast
Issued by NWS Huntsville, AL

Home | Current Version | Previous Version | Text Only | Print | Product List | Glossary On
Versions: 1 2 3 4 5 6 7 8 9 10 11 12 13 14 15 16 17 18 19 20 21 22 23 24 25 26
000
FTUS44 KHUN 261720
TAFHSV
TAF
KHSV 261720Z 2618/2718 19005KT P6SM SCT200
     FM262100 17009G15KT P6SM BKN090 OVC180
     FM270000 19008KT P6SM BKN050 OVC100
     FM270300 26008KT P6SM SCT050
     FM270500 30012G18KT P6SM BKN025 OVC035
     FM271500 32010KT P6SM BKN028=

USA.gov is the U.S. government's official web portal to all federal, state and local government web resources and services.